Time;durP1;ratioP1;P1;durP2;ratioP2;P2;SDS_P1;SDS_P2;PMS_P1;PMS_P2;Temp;Humidity;BMP_temperature;BMP_pressure;BME280_temperature;BME280_humidity;BME280_pressure;Samples;Min_cycle;Max_cycle;Signal;HPM_P1;HPM_P2
2022/06/25 00:00:23;;;;;;;11.20;5.60;;;;;;;20.73;75.88;100622.69;5076322;28;20092;-74
2022/06/25 00:02:48;;;;;;;3.80;2.53;;;;;;;20.66;76.11;100631.00;5054159;28;20020;-74
2022/06/25 00:05:28;;;;;;;5.57;3.42;;;;;;;20.63;75.69;100620.50;5053629;28;20028;-74
2022/06/25 00:07:58;;;;;;;1.30;1.20;;;;;;;20.75;75.82;100624.16;5051256;28;20028;-74
2022/06/25 00:10:24;;;;;;;10.45;6.18;;;;;;;20.74;75.67;100632.63;5046832;28;20123;-74
2022/06/25 00:12:50;;;;;;;0.70;0.70;;;;;;;20.88;75.04;100622.28;5065700;28;20309;-73
2022/06/25 00:15:15;;;;;;;6.90;2.35;;;;;;;21.04;74.34;100616.13;5047913;28;20025;-72
2022/06/25 00:17:41;;;;;;;11.75;5.45;;;;;;;20.99;74.36;100613.22;5053493;28;20048;-72
2022/06/25 00:20:07;;;;;;;1.85;1.00;;;;;;;20.92;74.71;100615.22;5061899;28;20034;-73
2022/06/25 00:22:33;;;;;;;20.80;7.60;;;;;;;20.84;75.23;100631.00;5074600;28;20046;-75
2022/06/25 00:24:58;;;;;;;5.93;1.75;;;;;;;20.53;76.69;100642.19;5047651;28;20482;-74
2022/06/25 00:27:23;;;;;;;8.88;6.03;;;;;;;20.57;76.38;100649.75;5065509;28;20024;-73
2022/06/25 00:29:49;;;;;;;1.67;1.55;;;;;;;20.82;75.34;100651.56;5047947;28;20017;-73
2022/06/25 00:32:15;;;;;;;6.10;1.95;;;;;;;20.80;75.37;100660.06;5053809;28;20110;-73
2022/06/25 00:34:40;;;;;;;33.20;15.68;;;;;;;20.52;76.22;100660.59;5078867;28;20031;-73
2022/06/25 00:37:07;;;;;;;2.75;0.82;;;;;;;20.68;75.86;100664.66;5051027;28;20036;-73
2022/06/25 00:39:33;;;;;;;33.13;16.70;;;;;;;20.30;76.86;100670.34;5068552;28;20012;-73
2022/06/25 00:41:58;;;;;;;32.97;15.55;;;;;;;20.19;77.27;100671.91;5070501;28;20023;-73
2022/06/25 00:44:25;;;;;;;7.57;4.20;;;;;;;20.14;77.29;100671.75;5054226;28;20017;-74
2022/06/25 00:46:51;;;;;;;2.33;1.55;;;;;;;20.10;77.77;100676.03;5048499;28;20070;-74
2022/06/25 00:49:16;;;;;;;4.43;2.22;;;;;;;20.17;77.40;100665.81;5067318;28;20021;-74
2022/06/25 00:51:46;;;;;;;4.50;3.70;;;;;;;20.00;77.89;100670.19;5065703;28;20548;-74
2022/06/25 00:54:13;;;;;;;0.10;0.10;;;;;;;20.44;76.36;100671.88;5065360;28;20027;-74
2022/06/25 00:56:43;;;;;;;1.40;1.20;;;;;;;20.47;76.06;100676.09;5070903;28;20024;-73
2022/06/25 00:59:10;;;;;;;48.58;32.75;;;;;;;20.72;74.87;100693.38;5054856;28;20020;-74
2022/06/25 01:01:35;;;;;;;59.20;32.92;;;;;;;20.55;75.55;100689.56;5047525;28;20027;-75
2022/06/25 01:04:02;;;;;;;57.28;34.25;;;;;;;20.29;76.50;100683.25;5056595;28;20020;-74
2022/06/25 01:06:28;;;;;;;58.53;37.50;;;;;;;20.24;76.49;100688.56;5046636;28;20023;-74
2022/06/25 01:08:57;;;;;;;56.55;36.42;;;;;;;20.24;76.71;100694.06;5053799;28;20025;-74
2022/06/25 01:11:24;;;;;;;56.47;36.17;;;;;;;20.21;76.57;100700.03;5059327;28;20063;-73
2022/06/25 01:13:52;;;;;;;48.33;32.33;;;;;;;20.35;75.82;100699.91;5057529;28;20024;-74
2022/06/25 01:16:19;;;;;;;54.53;34.83;;;;;;;20.30;76.25;100704.16;5060093;28;20027;-74
2022/06/25 01:18:44;;;;;;;55.35;33.40;;;;;;;20.45;75.48;100708.50;5077590;28;20054;-73
2022/06/25 01:21:10;;;;;;;49.92;35.20;;;;;;;20.40;75.70;100702.78;5071348;28;20103;-74
2022/06/25 01:23:35;;;;;;;59.00;38.17;;;;;;;20.35;75.71;100705.41;5061964;28;20027;-73
2022/06/25 01:26:01;;;;;;;61.33;36.25;;;;;;;20.41;75.51;100699.84;5069027;28;20155;-73
2022/06/25 01:28:26;;;;;;;59.42;37.63;;;;;;;20.14;76.63;100707.47;5050976;28;20020;-73
2022/06/25 01:30:52;;;;;;;53.58;36.45;;;;;;;20.11;76.88;100705.19;5051354;28;20043;-73
2022/06/25 01:33:17;;;;;;;64.13;41.38;;;;;;;20.05;77.02;100711.59;5052665;28;20020;-73
2022/06/25 01:35:42;;;;;;;63.80;40.17;;;;;;;20.05;77.10;100711.59;5060440;28;20115;-74
2022/06/25 01:38:08;;;;;;;54.85;37.50;;;;;;;20.20;76.27;100714.81;5050735;28;20047;-73
2022/06/25 01:40:34;;;;;;;58.40;38.40;;;;;;;20.31;75.87;100711.34;5054795;28;20027;-73
2022/06/25 01:43:00;;;;;;;48.53;34.55;;;;;;;20.22;75.97;100712.72;5064464;28;20531;-73
2022/06/25 01:45:26;;;;;;;49.20;32.55;;;;;;;20.40;75.09;100708.28;5059941;28;20115;-74
2022/06/25 01:47:51;;;;;;;58.97;36.90;;;;;;;20.41;74.98;100712.72;5070344;28;20063;-74
2022/06/25 01:50:17;;;;;;;57.42;36.70;;;;;;;20.34;75.40;100715.53;5050728;28;20033;-72
2022/06/25 01:52:43;;;;;;;55.00;36.75;;;;;;;20.38;75.08;100729.69;5068165;28;20523;-74
2022/06/25 01:55:10;;;;;;;54.90;36.15;;;;;;;20.33;75.26;100725.69;5058586;28;20119;-73
2022/06/25 01:57:36;;;;;;;58.58;41.42;;;;;;;20.28;75.46;100721.97;5055178;28;20070;-72
2022/06/25 02:00:04;;;;;;;63.75;42.97;;;;;;;20.17;76.14;100723.53;5069900;28;20021;-73
2022/06/25 02:02:30;;;;;;;63.72;39.92;;;;;;;20.05;76.77;100722.59;5069524;28;20021;-72
2022/06/25 02:04:55;;;;;;;71.20;45.97;;;;;;;19.94;77.30;100720.56;5055309;28;20028;-74
2022/06/25 02:07:20;;;;;;;71.80;43.10;;;;;;;19.96;77.23;100718.44;5059024;28;20036;-73
2022/06/25 02:09:46;;;;;;;79.15;43.42;;;;;;;20.00;76.68;100725.16;5050209;28;20024;-73
2022/06/25 02:12:11;;;;;;;63.25;41.08;;;;;;;20.04;76.51;100720.91;5054096;28;20021;-73
2022/06/25 02:14:37;;;;;;;59.45;39.75;;;;;;;20.22;75.27;100718.22;5061565;28;20036;-73
2022/06/25 02:17:02;;;;;;;56.60;38.53;;;;;;;20.34;74.53;100721.03;5055333;28;20111;-73
2022/06/25 02:22:03;;;;;;;61.60;40.15;;;;;;;20.30;74.35;100709.66;5007766;28;20065;-74
2022/06/25 02:24:28;;;;;;;55.10;33.50;;;;;;;20.27;74.45;100715.59;4991840;28;20026;-74
2022/06/25 02:26:54;;;;;;;57.72;37.17;;;;;;;20.20;75.23;100730.47;5009336;28;20112;-71
2022/06/25 02:29:19;;;;;;;69.65;43.45;;;;;;;20.16;75.62;100719.13;4991622;28;20048;-74
2022/06/25 02:31:44;;;;;;;67.20;39.00;;;;;;;20.16;75.51;100721.88;5009073;28;20029;-72
2022/06/25 02:34:10;;;;;;;53.35;36.28;;;;;;;20.16;75.14;100730.13;5008719;28;20132;-72
2022/06/25 02:36:35;;;;;;;64.63;39.50;;;;;;;20.14;74.94;100726.72;4989012;28;20022;-74
2022/06/25 02:39:01;;;;;;;59.42;37.03;;;;;;;20.27;73.76;100732.09;4990281;28;20104;-72
2022/06/25 02:41:26;;;;;;;49.45;32.33;;;;;;;20.24;73.44;100727.06;5009674;28;20021;-74
2022/06/25 02:43:52;;;;;;;53.70;37.80;;;;;;;20.10;74.07;100731.00;4991487;28;20028;-73
2022/06/25 02:46:17;;;;;;;57.25;36.20;;;;;;;20.18;73.50;100732.63;5008799;28;20017;-74
2022/06/25 02:48:43;;;;;;;50.45;37.67;;;;;;;19.99;74.83;100734.47;4991094;28;20026;-74
2022/06/25 02:51:08;;;;;;;72.03;45.50;;;;;;;19.88;75.93;100735.19;4991549;28;20026;-72
2022/06/25 02:53:34;;;;;;;57.05;38.22;;;;;;;19.91;75.69;100737.50;4991307;28;20022;-73
2022/06/25 02:58:54;;;;;;;73.93;48.97;;;;;;;19.84;76.97;100742.22;5008703;28;20029;-74
2022/06/25 03:01:21;;;;;;;58.10;41.92;;;;;;;19.65;76.99;100739.38;5007249;28;20097;-74
2022/06/25 03:03:46;;;;;;;75.25;49.47;;;;;;;19.65;77.11;100744.88;4991747;28;20034;-72
2022/06/25 03:06:12;;;;;;;69.70;45.60;;;;;;;19.64;77.31;100737.69;5007186;28;20088;-74
2022/06/25 03:08:37;;;;;;;87.90;50.50;;;;;;;19.55;77.44;100749.94;4990307;28;20038;-73
2022/06/25 03:11:03;;;;;;;87.15;52.20;;;;;;;19.40;78.10;100752.16;5008765;28;20022;-73
2022/06/25 03:13:31;;;;;;;86.43;52.65;;;;;;;19.46;77.89;100762.25;4990581;28;20113;-75
2022/06/25 03:15:57;;;;;;;79.95;47.22;;;;;;;19.51;77.32;100748.72;4991058;28;20121;-73
2022/06/25 03:18:22;;;;;;;78.18;51.33;;;;;;;19.56;77.32;100746.16;4991351;28;20100;-74
2022/06/25 03:20:50;;;;;;;86.57;55.33;;;;;;;19.60;77.08;100750.16;4990098;28;20034;-75
2022/06/25 03:23:16;;;;;;;91.47;57.88;;;;;;;19.60;76.97;100752.91;4990886;28;20084;-74
2022/06/25 03:25:41;;;;;;;82.20;51.58;;;;;;;19.59;77.06;100751.25;4994878;28;20121;-74
2022/06/25 03:28:06;;;;;;;94.72;54.97;;;;;;;19.68;76.48;100747.16;4970176;28;20105;-73
2022/06/25 03:30:32;;;;;;;94.05;58.92;;;;;;;19.74;76.22;100743.53;4970872;28;20026;-75
2022/06/25 03:32:57;;;;;;;86.57;53.97;;;;;;;19.73;76.00;100747.34;4987579;28;20096;-74
2022/06/25 03:35:22;;;;;;;91.80;54.63;;;;;;;19.61;76.70;100743.59;4988606;28;20037;-72
2022/06/25 03:37:48;;;;;;;89.90;56.53;;;;;;;19.73;75.96;100761.06;4986821;28;20109;-75
2022/06/25 03:40:14;;;;;;;70.47;48.55;;;;;;;19.65;75.86;100750.34;4970575;28;20037;-72
2022/06/25 03:42:39;;;;;;;79.75;52.75;;;;;;;19.81;75.40;100770.09;4979576;28;20033;-74
2022/06/25 03:45:05;;;;;;;80.57;51.97;;;;;;;19.78;75.51;100769.50;4989589;28;20018;-74
2022/06/25 03:47:30;;;;;;;82.10;51.70;;;;;;;19.81;75.50;100764.63;4990582;28;20087;-74
2022/06/25 03:49:55;;;;;;;92.45;59.85;;;;;;;19.84;75.07;100766.94;4989650;28;20061;-74
2022/06/25 03:52:21;;;;;;;92.80;57.25;;;;;;;19.82;75.12;100774.53;4989251;28;20112;-72
2022/06/25 03:54:46;;;;;;;80.55;54.75;;;;;;;19.61;75.96;100782.06;4990913;28;20018;-73
2022/06/25 03:57:12;;;;;;;95.18;60.35;;;;;;;19.57;76.07;100786.28;4989626;28;20586;-74
2022/06/25 03:59:37;;;;;;;93.15;56.55;;;;;;;19.57;76.10;100774.47;4990533;28;20064;-74
2022/06/25 04:02:02;;;;;;;92.22;55.88;;;;;;;19.54;76.21;100775.72;4989234;28;20026;-75
2022/06/25 04:04:28;;;;;;;101.60;60.63;;;;;;;19.63;75.81;100774.47;4990064;28;20517;-72
2022/06/25 04:06:53;;;;;;;94.82;61.38;;;;;;;19.71;75.65;100760.47;4989856;28;20030;-74
2022/06/25 04:09:19;;;;;;;100.40;61.47;;;;;;;19.57;75.76;100775.31;5006542;28;20065;-74
2022/06/25 04:11:44;;;;;;;98.50;61.50;;;;;;;19.40;76.52;100774.13;4990258;28;20052;-74
2022/06/25 04:14:10;;;;;;;104.60;66.40;;;;;;;19.49;76.17;100779.13;4989424;28;20029;-75
2022/06/25 04:16:35;;;;;;;101.85;63.00;;;;;;;19.41;76.34;100776.66;5006993;28;20030;-72
2022/06/25 04:19:00;;;;;;;95.78;59.95;;;;;;;19.54;76.08;100786.72;4989756;28;20021;-74
2022/06/25 04:21:27;;;;;;;99.72;61.38;;;;;;;19.72;75.10;100778.63;4989808;28;20030;-75
2022/06/25 04:23:52;;;;;;;108.22;63.47;;;;;;;19.62;75.89;100781.00;4990558;28;20029;-74
2022/06/25 04:26:18;;;;;;;109.50;64.78;;;;;;;19.74;75.31;100783.88;4988876;28;20033;-74
2022/06/25 04:31:27;;;;;;;95.57;59.15;;;;;;;19.62;75.70;100782.91;5004056;28;20053;-72
2022/06/25 04:33:53;;;;;;;99.07;63.05;;;;;;;19.57;75.77;100786.28;5007179;28;20029;-74
2022/06/25 04:36:19;;;;;;;91.07;59.05;;;;;;;19.71;75.34;100787.94;4989188;28;20025;-74
2022/06/25 04:38:45;;;;;;;90.43;56.25;;;;;;;19.88;74.71;100792.88;4989455;28;20509;-71
2022/06/25 04:41:10;;;;;;;90.03;57.63;;;;;;;19.83;74.90;100784.50;5009848;28;20036;-74
2022/06/25 04:43:36;;;;;;;91.03;58.85;;;;;;;19.90;74.89;100790.78;4993663;28;20093;-72
2022/06/25 04:46:02;;;;;;;91.00;59.20;;;;;;;19.95;74.41;100793.69;4994501;28;20057;-73
2022/06/25 04:48:27;;;;;;;93.95;60.05;;;;;;;19.73;75.48;100791.28;4993459;28;20061;-74
2022/06/25 04:50:52;;;;;;;101.93;62.05;;;;;;;19.75;75.22;100800.16;4993558;28;20120;-72
2022/06/25 04:53:18;;;;;;;96.30;60.72;;;;;;;19.86;74.89;100795.88;4994355;28;20029;-74
2022/06/25 04:55:44;;;;;;;93.75;61.47;;;;;;;19.77;75.37;100800.78;4985211;28;20026;-73
2022/06/25 04:58:09;;;;;;;88.00;57.63;;;;;;;19.71;75.49;100809.91;4993824;28;20469;-72
2022/06/25 05:00:35;;;;;;;81.47;55.63;;;;;;;19.82;75.29;100799.25;4992222;28;20082;-74
2022/06/25 05:03:00;;;;;;;89.20;57.53;;;;;;;19.78;75.69;100816.22;4979039;28;20018;-72
2022/06/25 05:05:26;;;;;;;89.43;59.15;;;;;;;19.74;75.94;100816.84;4993661;28;20022;-72
2022/06/25 05:07:51;;;;;;;82.82;54.75;;;;;;;19.95;75.06;100812.91;4992819;28;20056;-74
2022/06/25 05:10:16;;;;;;;84.35;53.90;;;;;;;19.92;75.21;100810.63;4993136;28;20026;-72
2022/06/25 05:15:26;;;;;;;76.78;50.53;;;;;;;19.95;75.34;100821.16;5005313;28;20447;-75
2022/06/25 05:17:51;;;;;;;61.92;44.05;;;;;;;20.00;74.94;100813.09;4972562;28;20162;-74
2022/06/25 05:20:16;;;;;;;76.75;48.40;;;;;;;20.02;74.54;100811.84;4990926;28;20030;-72
2022/06/25 05:22:42;;;;;;;65.47;45.38;;;;;;;20.01;74.29;100821.13;4990306;28;20030;-74
2022/06/25 05:25:10;;;;;;;60.85;41.60;;;;;;;20.09;73.88;100820.03;4934020;28;20043;-71
2022/06/25 05:27:35;;;;;;;55.25;40.63;;;;;;;20.20;73.61;100830.28;4935306;29;20027;-73
2022/06/25 05:30:00;;;;;;;60.03;39.60;;;;;;;20.39;72.51;100824.88;4934056;29;20034;-74
2022/06/25 05:32:26;;;;;;;61.75;39.58;;;;;;;20.07;73.73;100830.41;4935228;29;20016;-72
2022/06/25 05:34:51;;;;;;;56.38;38.53;;;;;;;20.29;73.34;100844.63;4935031;29;20094;-73
2022/06/25 05:37:16;;;;;;;50.38;38.10;;;;;;;19.79;74.84;100850.84;4934116;29;20523;-73
2022/06/25 05:39:42;;;;;;;54.47;37.03;;;;;;;19.83;74.69;100850.44;4935485;29;20102;-72
2022/06/25 05:42:07;;;;;;;51.15;35.00;;;;;;;20.00;74.02;100857.09;4951002;29;20098;-74
2022/06/25 05:44:33;;;;;;;45.05;32.65;;;;;;;20.18;73.37;100862.69;4934814;29;20027;-72
2022/06/25 05:46:58;;;;;;;46.67;30.63;;;;;;;20.18;72.73;100870.94;4934691;29;20027;-73
2022/06/25 05:49:24;;;;;;;39.47;29.30;;;;;;;20.37;72.21;100868.28;4955059;28;20058;-72
2022/06/25 05:51:49;;;;;;;38.65;27.55;;;;;;;20.45;72.24;100870.78;4969314;28;20061;-72
2022/06/25 05:54:16;;;;;;;33.65;24.15;;;;;;;20.45;71.54;100881.78;4950919;28;20023;-72
2022/06/25 05:56:41;;;;;;;30.85;23.52;;;;;;;20.66;71.04;100875.88;4969396;28;20110;-72
2022/06/25 05:59:06;;;;;;;31.33;22.58;;;;;;;20.81;70.75;100876.41;4952267;28;20087;-73
2022/06/25 06:01:32;;;;;;;36.60;23.30;;;;;;;20.86;69.87;100884.81;4951362;28;20104;-72
2022/06/25 06:03:57;;;;;;;30.75;21.98;;;;;;;20.90;70.31;100885.19;4952508;28;20074;-72
2022/06/25 06:06:22;;;;;;;29.98;21.08;;;;;;;20.95;69.65;100876.28;4968802;28;20019;-72
2022/06/25 06:08:48;;;;;;;27.23;18.48;;;;;;;21.07;69.53;100886.31;4956581;28;20023;-72
2022/06/25 06:11:13;;;;;;;26.77;18.02;;;;;;;21.33;68.32;100882.47;4968807;28;20027;-73
2022/06/25 06:13:38;;;;;;;24.55;17.25;;;;;;;21.52;67.70;100888.81;4951136;28;20395;-73
2022/06/25 06:16:04;;;;;;;22.05;16.42;;;;;;;21.77;66.36;100882.34;4969824;28;20073;-72
2022/06/25 06:18:30;;;;;;;18.88;15.70;;;;;;;21.71;66.14;100873.09;4950974;28;20023;-73
2022/06/25 06:20:55;;;;;;;22.15;14.52;;;;;;;21.84;65.74;100874.84;4930728;28;20137;-72
2022/06/25 06:23:20;;;;;;;23.90;15.55;;;;;;;21.84;65.38;100883.97;4962837;28;20027;-73
2022/06/25 06:25:46;;;;;;;18.20;13.73;;;;;;;21.95;65.29;100888.69;4968907;28;20026;-73
2022/06/25 06:28:11;;;;;;;17.77;14.60;;;;;;;22.23;63.88;100901.03;4970083;28;20033;-73
2022/06/25 06:30:36;;;;;;;21.80;15.77;;;;;;;21.99;64.32;100888.22;4985863;28;20028;-73
2022/06/25 06:33:02;;;;;;;22.85;14.00;;;;;;;21.99;64.44;100893.75;4972419;28;20022;-73
2022/06/25 06:35:27;;;;;;;22.25;14.27;;;;;;;21.90;64.36;100884.94;4979234;28;20033;-73
2022/06/25 06:37:52;;;;;;;16.88;12.20;;;;;;;22.14;62.88;100891.44;4968572;28;20029;-72
2022/06/25 06:40:18;;;;;;;14.98;11.23;;;;;;;22.31;62.66;100892.44;4985867;28;20455;-73
2022/06/25 06:42:43;;;;;;;11.48;9.75;;;;;;;22.47;61.81;100893.69;4968732;28;20487;-73
2022/06/25 06:45:09;;;;;;;12.85;8.98;;;;;;;22.57;60.36;100901.41;4969564;28;20026;-73
2022/06/25 06:47:35;;;;;;;16.00;9.45;;;;;;;22.69;61.11;100893.94;4969402;28;20023;-74
2022/06/25 06:50:00;;;;;;;11.80;8.30;;;;;;;22.58;59.88;100903.06;4969291;28;20026;-75
2022/06/25 06:52:26;;;;;;;10.90;6.95;;;;;;;22.63;58.71;100905.97;4970953;28;20119;-74
2022/06/25 06:54:52;;;;;;;11.30;7.13;;;;;;;22.35;59.38;100910.19;4986423;28;20022;-74
2022/06/25 06:57:17;;;;;;;8.20;5.93;;;;;;;22.66;58.77;100906.31;4971111;28;20018;-74
2022/06/25 06:59:43;;;;;;;10.63;5.10;;;;;;;22.74;57.45;100918.94;4970597;28;20026;-74
2022/06/25 07:02:08;;;;;;;8.20;4.03;;;;;;;22.92;56.94;100912.50;4986012;28;20026;-76
2022/06/25 07:04:33;;;;;;;7.40;4.80;;;;;;;22.79;56.07;100916.31;4967737;28;20019;-74
2022/06/25 07:06:59;;;;;;;9.38;4.80;;;;;;;22.97;56.56;100919.00;4985320;28;20030;-74
2022/06/25 07:09:24;;;;;;;12.45;5.88;;;;;;;23.21;55.82;100913.47;4984874;28;20029;-74
2022/06/25 07:11:50;;;;;;;7.57;4.80;;;;;;;23.44;54.54;100918.97;4994139;28;20042;-75
2022/06/25 07:14:15;;;;;;;7.70;4.43;;;;;;;23.24;54.66;100913.00;4998297;28;20018;-75
2022/06/25 07:16:40;;;;;;;5.63;3.83;;;;;;;23.35;53.22;100928.72;4991070;28;20029;-76
2022/06/25 07:19:06;;;;;;;10.48;4.10;;;;;;;23.37;53.59;100917.44;4979403;28;20034;-75
2022/06/25 07:21:31;;;;;;;5.32;3.40;;;;;;;23.38;52.52;100925.47;4966232;28;20029;-77
2022/06/25 07:23:57;;;;;;;7.00;4.55;;;;;;;23.45;52.37;100925.34;4982407;28;20057;-77
2022/06/25 07:26:23;;;;;;;7.28;3.65;;;;;;;23.55;51.77;100925.59;5001490;28;20021;-74
2022/06/25 07:28:51;;;;;;;7.25;4.07;;;;;;;23.66;52.10;100926.66;4976612;28;20034;-75
2022/06/25 07:31:17;;;;;;;7.45;3.20;;;;;;;23.82;51.17;100925.91;4988081;28;20033;-75
2022/06/25 07:33:43;;;;;;;4.72;3.38;;;;;;;23.78;50.11;100933.00;4989796;28;20030;-75
2022/06/25 07:36:09;;;;;;;4.30;3.10;;;;;;;23.87;50.38;100931.56;4982902;28;20036;-75
2022/06/25 07:38:34;;;;;;;3.58;2.78;;;;;;;24.28;49.31;100924.06;4982966;28;20100;-76
2022/06/25 07:41:00;;;;;;;7.85;3.28;;;;;;;24.60;48.12;100928.00;4975714;28;20037;-75
2022/06/25 07:43:27;;;;;;;5.35;3.03;;;;;;;24.84;47.30;100936.16;4980216;28;20038;-76
2022/06/25 07:45:53;;;;;;;7.57;3.40;;;;;;;24.76;47.55;100936.56;4991217;28;20018;-76
2022/06/25 07:48:19;;;;;;;10.38;4.03;;;;;;;25.23;47.13;100933.47;4976772;28;20022;-75
2022/06/25 07:53:28;;;;;;;9.57;4.15;;;;;;;25.30;47.33;100928.59;4992189;28;20100;-75
2022/06/25 07:55:53;;;;;;;9.80;4.15;;;;;;;24.58;47.62;100935.75;4993977;28;20129;-75
2022/06/25 07:58:19;;;;;;;8.63;3.63;;;;;;;24.65;48.06;100935.56;4983007;28;20025;-75
2022/06/25 08:00:44;;;;;;;6.70;3.40;;;;;;;25.66;45.33;100941.88;5005462;28;20026;-75
2022/06/25 08:03:10;;;;;;;3.75;2.92;;;;;;;25.73;45.70;100940.88;4993728;28;20017;-76
2022/06/25 08:05:36;;;;;;;7.38;5.10;;;;;;;25.24;47.07;100937.97;4983109;28;20073;-74
2022/06/25 08:08:01;;;;;;;5.68;4.22;;;;;;;25.41;46.47;100933.19;4985874;28;20052;-75
2022/06/25 08:10:26;;;;;;;8.77;5.22;;;;;;;25.20;47.44;100942.31;4977739;28;20786;-75
2022/06/25 08:12:52;;;;;;;4.90;4.10;;;;;;;25.53;46.18;100941.41;4984356;28;20017;-76
2022/06/25 08:15:19;;;;;;;8.65;4.53;;;;;;;25.88;45.65;100946.63;4990602;28;20049;-76
2022/06/25 08:17:46;;;;;;;10.90;5.13;;;;;;;25.36;46.25;100953.34;4998176;28;20566;-74
2022/06/25 08:20:12;;;;;;;7.07;5.13;;;;;;;25.58;45.79;100944.25;4977397;28;20053;-76
2022/06/25 08:22:37;;;;;;;5.55;3.67;;;;;;;26.41;44.56;100947.84;4990382;28;20022;-75
2022/06/25 08:25:04;;;;;;;8.48;4.35;;;;;;;26.61;43.72;100945.28;4980936;28;20033;-74
2022/06/25 08:27:31;;;;;;;6.65;4.07;;;;;;;26.79;43.47;100932.91;4994737;28;20055;-76
2022/06/25 08:29:57;;;;;;;8.52;5.10;;;;;;;26.73;43.83;100934.84;5000034;28;20037;-75
2022/06/25 08:32:23;;;;;;;10.30;4.93;;;;;;;27.05;43.15;100942.31;4989139;28;20097;-75
2022/06/25 08:34:48;;;;;;;5.97;3.85;;;;;;;27.11;43.25;100941.25;4981256;28;20141;-76
2022/06/25 08:37:14;;;;;;;6.78;3.03;;;;;;;27.57;42.84;100938.78;4982802;28;21052;-75
2022/06/25 08:39:39;;;;;;;5.28;3.75;;;;;;;27.34;42.94;100950.31;4982664;28;20030;-75
2022/06/25 08:42:05;;;;;;;7.75;4.90;;;;;;;26.71;44.31;100941.72;4994258;28;20053;-75
2022/06/25 08:44:31;;;;;;;6.35;3.92;;;;;;;27.43;43.25;100943.16;4976303;28;20486;-75
2022/06/25 08:46:58;;;;;;;7.72;4.38;;;;;;;26.86;43.94;100943.78;4983117;28;20022;-76
2022/06/25 08:49:24;;;;;;;6.03;3.92;;;;;;;27.04;44.20;100946.19;4980618;28;20573;-75
2022/06/25 08:51:52;;;;;;;7.53;5.40;;;;;;;27.39;42.17;100950.38;4977476;28;20065;-75
2022/06/25 08:54:19;;;;;;;13.20;5.47;;;;;;;27.54;41.31;100944.88;4988006;28;20435;-76
2022/06/25 08:56:46;;;;;;;11.80;4.70;;;;;;;28.15;40.64;100944.34;4998125;28;20128;-76
2022/06/25 08:59:11;;;;;;;9.05;5.53;;;;;;;27.82;41.51;100947.28;4979152;28;20046;-77
2022/06/25 09:01:36;;;;;;;10.40;6.20;;;;;;;27.10;42.71;100949.88;4981260;28;20514;-75
2022/06/25 09:04:02;;;;;;;5.60;4.82;;;;;;;27.95;41.17;100953.47;4977833;28;20081;-75
2022/06/25 09:06:28;;;;;;;10.63;5.32;;;;;;;27.61;42.10;100945.47;4975082;28;20109;-76
2022/06/25 09:09:13;;;;;;;5.68;4.70;;;;;;;27.80;40.98;100946.72;4983019;28;20033;-75
2022/06/25 09:12:04;;;;;;;8.48;4.72;;;;;;;27.75;41.98;100941.13;4998733;28;20026;-76
2022/06/25 09:14:30;;;;;;;;;;;;;;;28.47;40.53;100946.97;4970979;28;20037;-75
2022/06/25 09:17:05;;;;;;;6.40;5.03;;;;;;;28.37;40.62;100948.63;4980735;28;19909;-76
2022/06/25 09:19:32;;;;;;;6.35;4.90;;;;;;;28.84;39.84;100939.22;4974290;28;20018;-75
2022/06/25 09:21:58;;;;;;;6.53;4.88;;;;;;;28.54;40.04;100936.38;4982921;23;20053;-71
2022/06/25 09:24:38;;;;;;;10.30;4.72;;;;;;;28.53;39.55;100948.66;4969334;28;20467;-70
2022/06/25 09:27:04;;;;;;;10.68;4.05;;;;;;;28.59;39.22;100936.41;4969230;28;20014;-71
2022/06/25 09:29:40;;;;;;;6.82;3.75;;;;;;;28.58;39.72;100934.72;4966128;28;20027;-71
2022/06/25 09:32:06;;;;;;;5.35;3.42;;;;;;;28.38;40.55;100944.72;4977315;28;20086;-71
2022/06/25 09:34:33;;;;;;;8.05;4.65;;;;;;;27.28;42.50;100941.13;4970845;28;20092;-71
2022/06/25 09:37:24;;;;;;;5.47;4.43;;;;;;;27.16;43.02;100937.69;4962242;28;20025;-70
2022/06/25 09:39:50;;;;;;;6.00;4.67;;;;;;;26.70;43.89;100935.34;4964185;28;20065;-73
2022/06/25 09:42:32;;;;;;;10.95;4.40;;;;;;;26.90;43.36;100942.19;4974642;28;20026;-72
2022/06/25 09:45:12;;;;;;;9.05;4.75;;;;;;;26.70;44.75;100948.41;4964878;28;20041;-73
2022/06/25 09:47:40;;;;;;;6.05;4.38;;;;;;;26.67;45.26;100943.34;4965887;28;20026;-73
2022/06/25 09:50:15;;;;;;;9.25;4.70;;;;;;;26.92;44.80;100942.75;4965149;28;20101;-73
2022/06/25 09:52:59;;;;;;;5.57;4.43;;;;;;;27.09;45.13;100937.91;4976724;28;20030;-73
2022/06/25 09:55:37;;;;;;;8.45;5.38;;;;;;;27.63;43.59;100937.69;4972969;28;20061;-71
2022/06/25 09:58:03;;;;;;;7.25;6.00;;;;;;;27.51;43.82;100940.69;4972509;28;20026;-70
2022/06/25 10:00:30;;;;;;;7.28;5.35;;;;;;;27.38;43.95;100940.31;4970375;28;20033;-73
2022/06/25 10:02:58;;;;;;;9.63;6.03;;;;;;;26.64;45.39;100941.13;4983035;28;20053;-71
2022/06/25 10:05:37;;;;;;;8.70;5.47;;;;;;;26.60;45.10;100935.22;4960943;28;20280;-72
2022/06/25 10:08:09;;;;;;;6.05;4.55;;;;;;;27.23;44.26;100939.13;4950648;28;20026;-73
2022/06/25 10:10:44;;;;;;;5.45;4.60;;;;;;;28.36;42.08;100944.19;4950248;28;20453;-72
2022/06/25 10:13:10;;;;;;;5.68;3.92;;;;;;;28.52;41.53;100938.63;4967799;28;20109;-72
2022/06/25 10:15:37;;;;;;;5.63;4.55;;;;;;;28.67;41.61;100944.19;4966476;28;20428;-72
2022/06/25 10:18:09;;;;;;;7.78;4.82;;;;;;;28.75;41.19;100945.59;4971847;28;20029;-72
2022/06/25 10:20:36;;;;;;;7.53;4.70;;;;;;;29.29;40.27;100943.13;4958765;28;20543;-72
2022/06/25 10:23:04;;;;;;;9.27;4.05;;;;;;;29.38;40.93;100938.63;4946398;28;20057;-71
2022/06/25 10:25:31;;;;;;;5.65;4.03;;;;;;;29.28;39.44;100930.28;4964652;28;20045;-71
2022/06/25 10:28:04;;;;;;;7.20;4.28;;;;;;;29.62;37.58;100935.25;4969321;28;20045;-71
2022/06/25 10:30:37;;;;;;;8.70;4.40;;;;;;;29.51;38.76;100933.56;4973020;28;20033;-72
2022/06/25 10:33:03;;;;;;;4.82;4.00;;;;;;;29.62;37.85;100935.25;4964362;28;20034;-71
2022/06/25 10:35:31;;;;;;;5.75;4.60;;;;;;;30.37;37.35;100929.59;4951930;28;20027;-72
2022/06/25 10:38:11;;;;;;;8.82;2.75;;;;;;;30.41;35.51;100925.94;4963894;28;20109;-72
2022/06/25 10:40:51;;;;;;;3.05;2.40;;;;;;;30.12;35.17;100927.78;4963104;28;20115;-72
2022/06/25 10:43:42;;;;;;;3.67;2.28;;;;;;;30.67;34.64;100915.44;4970805;28;20014;-72
2022/06/25 10:46:26;;;;;;;5.90;2.28;;;;;;;31.30;33.60;100921.06;4978398;28;20030;-72
2022/06/25 10:49:06;;;;;;;2.95;2.28;;;;;;;31.42;32.80;100917.84;4975573;28;20391;-73
2022/06/25 10:51:31;;;;;;;6.55;2.58;;;;;;;31.43;33.22;100919.53;4968577;28;20095;-73
2022/06/25 10:53:58;;;;;;;12.68;3.17;;;;;;;30.69;34.56;100915.16;4979120;28;20527;-71
2022/06/25 10:56:23;;;;;;;4.57;3.42;;;;;;;30.91;34.42;100911.88;4968996;28;20023;-73
2022/06/25 10:58:50;;;;;;;3.33;2.65;;;;;;;31.21;33.32;100908.78;4993938;28;20167;-72
2022/06/25 11:01:24;;;;;;;4.60;2.83;;;;;;;31.53;33.07;100919.38;4991946;28;20056;-72
2022/06/25 11:03:55;;;;;;;5.70;2.92;;;;;;;30.83;33.12;100921.75;4970891;28;20018;-72
2022/06/25 11:06:29;;;;;;;7.27;2.70;;;;;;;30.51;33.80;100914.69;4978387;28;20018;-73
2022/06/25 11:08:54;;;;;;;4.50;2.50;;;;;;;30.31;33.92;100920.41;4972455;28;20018;-73
2022/06/25 11:11:24;;;;;;;2.40;2.10;;;;;;;31.02;32.54;100914.28;4986058;28;20033;-72
2022/06/25 11:13:49;;;;;;;3.50;2.17;;;;;;;30.42;33.85;100921.19;4990590;28;20030;-73
2022/06/25 11:16:18;;;;;;;5.43;2.17;;;;;;;30.50;34.02;100914.97;4983688;28;20018;-73
2022/06/25 11:18:59;;;;;;;2.85;1.83;;;;;;;29.53;34.93;100909.03;4985831;28;20040;-74
2022/06/25 11:21:30;;;;;;;3.20;1.80;;;;;;;29.73;34.75;100908.94;4990753;28;20041;-72
2022/06/25 11:24:10;;;;;;;3.85;1.70;;;;;;;29.83;33.42;100920.09;4992638;28;20288;-73
2022/06/25 11:29:29;;;;;;;4.60;2.03;;;;;;;29.52;34.45;100935.25;4994454;28;20084;-74
2022/06/25 11:31:55;;;;;;;4.88;1.90;;;;;;;28.96;35.04;100932.56;4990008;28;20019;-74